createdAt,value
2023-05-24T00:00:09.509Z,14.59
2023-05-24T00:02:37.855Z,14.98
2023-05-24T00:05:05.343Z,14.96
2023-05-24T00:07:31.853Z,14.95
2023-05-24T00:09:58.332Z,14.94
2023-05-24T00:12:25.546Z,14.96
2023-05-24T00:14:51.913Z,14.94
2023-05-24T00:17:18.423Z,14.97
2023-05-24T00:19:44.845Z,14.38
2023-05-24T00:22:11.871Z,14.33
2023-05-24T00:24:38.318Z,14.79
2023-05-24T00:27:04.934Z,14.68
2023-05-24T00:29:32.369Z,13.67
2023-05-24T00:31:58.969Z,14.89
2023-05-24T00:34:25.539Z,14.42
2023-05-24T00:36:52.006Z,14.14
2023-05-24T00:39:18.484Z,14.47
2023-05-24T00:41:44.925Z,14.04
2023-05-24T00:44:11.396Z,14.51
2023-05-24T00:46:38.120Z,14.37
2023-05-24T00:49:04.943Z,14.44
2023-05-24T00:51:33.805Z,14.42
2023-05-24T00:54:00.908Z,14.36
2023-05-24T00:56:28.130Z,14.24
2023-05-24T00:58:56.030Z,14.06
2023-05-24T01:01:26.468Z,14.06
2023-05-24T01:03:54.104Z,14.01
2023-05-24T01:06:21.500Z,14.28
2023-05-24T01:09:15.421Z,14.22
2023-05-24T01:11:59.439Z,13.66
2023-05-24T01:14:36.733Z,13.16
2023-05-24T01:17:26.515Z,13.92
2023-05-24T01:19:59.989Z,13.73
2023-05-24T01:22:42.607Z,13.52
2023-05-24T01:25:33.400Z,13.88
2023-05-24T01:28:00.793Z,13.65
2023-05-24T01:30:28.684Z,13.43
2023-05-24T01:32:55.316Z,13.49
2023-05-24T01:35:21.796Z,13.58
2023-05-24T01:37:48.183Z,13.59
2023-05-24T01:40:15.434Z,13.44
2023-05-24T01:42:46.820Z,13.66
2023-05-24T01:45:39.466Z,12.85
2023-05-24T01:48:18.983Z,13.59
2023-05-24T01:50:53.537Z,12.93
2023-05-24T01:53:21.225Z,13.25
2023-05-24T01:55:49.776Z,13.23
2023-05-24T01:58:17.719Z,13.18
2023-05-24T02:00:45.514Z,13.02
2023-05-24T02:03:14.581Z,13.18
2023-05-24T02:05:41.031Z,13.39
2023-05-24T02:08:07.623Z,13.40
2023-05-24T02:10:33.996Z,13.13
2023-05-24T02:13:00.420Z,13.31
2023-05-24T02:15:30.225Z,13.21
2023-05-24T02:17:57.006Z,13.00
2023-05-24T02:20:24.087Z,13.26
2023-05-24T02:22:50.738Z,12.99
2023-05-24T02:25:17.121Z,12.85
2023-05-24T02:27:46.998Z,12.67
2023-05-24T02:30:14.140Z,12.01
2023-05-24T02:32:41.424Z,12.26
2023-05-24T02:35:08.016Z,12.83
2023-05-24T02:37:34.409Z,12.77
2023-05-24T02:40:00.788Z,12.81
2023-05-24T02:42:27.183Z,12.07
2023-05-24T02:44:53.621Z,12.76
2023-05-24T02:47:20.157Z,12.51
2023-05-24T02:49:46.626Z,12.81
2023-05-24T02:52:13.823Z,12.72
2023-05-24T02:54:40.553Z,12.55
2023-05-24T02:57:06.994Z,11.91
2023-05-24T02:59:36.525Z,12.57
2023-05-24T03:02:02.990Z,11.81
2023-05-24T03:04:29.396Z,11.96
2023-05-24T03:06:56.348Z,12.63
2023-05-24T03:09:22.804Z,11.81
2023-05-24T03:11:49.257Z,12.49
2023-05-24T03:14:17.253Z,12.44
2023-05-24T03:16:43.698Z,12.49
2023-05-24T03:19:10.486Z,12.49
2023-05-24T03:21:37.112Z,12.42
2023-05-24T03:24:03.656Z,12.10
2023-05-24T03:26:30.024Z,12.54
2023-05-24T03:28:56.525Z,11.82
2023-05-24T03:31:24.232Z,12.38
2023-05-24T03:33:51.402Z,12.17
2023-05-24T03:36:18.259Z,12.02
2023-05-24T03:38:44.990Z,12.01
2023-05-24T03:41:11.453Z,11.87
2023-05-24T03:43:37.985Z,12.04
2023-05-24T03:46:04.629Z,12.14
2023-05-24T03:48:31.839Z,12.17
2023-05-24T03:50:58.240Z,11.52
2023-05-24T03:53:24.645Z,12.17
2023-05-24T03:55:51.668Z,11.56
2023-05-24T03:58:18.089Z,11.86
2023-05-24T04:00:44.697Z,11.73
2023-05-24T04:03:12.080Z,12.10
2023-05-24T04:05:38.608Z,11.80
2023-05-24T04:08:05.099Z,12.16
2023-05-24T04:10:31.490Z,12.27
2023-05-24T04:12:58.746Z,12.27
2023-05-24T04:15:25.293Z,11.87
2023-05-24T04:17:55.629Z,12.11
2023-05-24T04:20:27.398Z,12.39
2023-05-24T04:22:54.339Z,12.39
2023-05-24T04:25:20.886Z,12.18
2023-05-24T04:27:50.256Z,11.91
2023-05-24T04:30:16.936Z,11.90
2023-05-24T04:32:47.292Z,11.85
2023-05-24T04:35:14.176Z,11.78
2023-05-24T04:37:40.965Z,11.92
2023-05-24T04:40:08.573Z,11.85
2023-05-24T04:42:35.495Z,11.77
2023-05-24T04:45:02.905Z,12.66
2023-05-24T04:47:29.810Z,12.30
2023-05-24T04:49:56.261Z,11.58
2023-05-24T04:52:22.788Z,12.47
2023-05-24T04:54:49.875Z,12.35
2023-05-24T04:57:16.855Z,12.29
2023-05-24T04:59:43.817Z,12.15
2023-05-24T05:02:10.382Z,12.24
2023-05-24T05:04:36.783Z,11.88
2023-05-24T05:07:03.662Z,12.39
2023-05-24T05:09:30.342Z,12.24
2023-05-24T05:11:57.079Z,12.29
2023-05-24T05:14:23.554Z,12.34
2023-05-24T05:16:50.099Z,12.37
2023-05-24T05:19:16.550Z,12.44
2023-05-24T05:21:42.923Z,12.50
2023-05-24T05:24:09.564Z,12.19
2023-05-24T05:26:35.979Z,12.36
2023-05-24T05:29:02.526Z,12.39
2023-05-24T05:31:35.724Z,12.02
2023-05-24T05:34:02.176Z,12.05
2023-05-24T05:36:28.608Z,12.59
2023-05-24T05:38:55.137Z,12.12
2023-05-24T05:41:22.231Z,12.51
2023-05-24T05:43:48.754Z,12.64
2023-05-24T05:46:16.104Z,12.90
2023-05-24T05:48:43.821Z,12.00
2023-05-24T05:51:12.157Z,13.03
2023-05-24T05:53:38.574Z,13.15
2023-05-24T05:56:05.162Z,12.36
2023-05-24T05:58:31.570Z,13.29
2023-05-24T06:00:58.397Z,13.24
2023-05-24T06:03:24.974Z,13.21
2023-05-24T06:05:51.484Z,12.86
2023-05-24T06:08:17.890Z,13.56
2023-05-24T06:10:44.562Z,13.32
2023-05-24T06:13:11.199Z,13.61
2023-05-24T06:15:38.190Z,12.97
2023-05-24T06:18:05.162Z,13.61
2023-05-24T06:20:31.783Z,13.77
2023-05-24T06:22:58.927Z,13.47
2023-05-24T06:25:27.439Z,13.46
2023-05-24T06:27:53.933Z,13.41
2023-05-24T06:30:20.558Z,14.03
2023-05-24T06:32:47.074Z,12.87
2023-05-24T06:35:13.662Z,13.36
2023-05-24T06:37:40.127Z,14.06
2023-05-24T06:40:08.848Z,13.93
2023-05-24T06:42:36.505Z,14.07
2023-05-24T06:45:03.801Z,14.28
2023-05-24T06:47:30.514Z,13.51
2023-05-24T06:49:57.390Z,14.10
2023-05-24T06:52:23.879Z,14.60
2023-05-24T06:54:50.424Z,14.50
2023-05-24T06:57:16.797Z,14.71
2023-05-24T06:59:43.201Z,14.60
2023-05-24T07:02:10.618Z,14.66
2023-05-24T07:04:37.149Z,14.59
2023-05-24T07:07:03.901Z,14.01
2023-05-24T07:09:30.340Z,14.85
2023-05-24T07:11:56.996Z,14.48
2023-05-24T07:14:24.039Z,15.23
2023-05-24T07:16:50.481Z,14.36
2023-05-24T07:19:16.994Z,14.93
2023-05-24T07:21:43.360Z,14.80
2023-05-24T07:24:09.729Z,15.43
2023-05-24T07:26:36.585Z,15.49
2023-05-24T07:29:02.986Z,14.70
2023-05-24T07:31:32.437Z,14.82
2023-05-24T07:33:58.888Z,14.87
2023-05-24T07:36:26.056Z,15.26
2023-05-24T07:38:53.147Z,15.37
2023-05-24T07:41:19.515Z,15.45
2023-05-24T07:43:46.364Z,15.46
2023-05-24T07:46:12.789Z,15.61
2023-05-24T07:48:39.181Z,15.46
2023-05-24T07:51:07.027Z,15.17
2023-05-24T07:53:34.652Z,15.54
2023-05-24T07:56:01.309Z,15.66
2023-05-24T07:58:27.837Z,15.80
2023-05-24T08:00:54.506Z,15.78
2023-05-24T08:03:21.527Z,15.35
2023-05-24T08:05:48.333Z,16.12
2023-05-24T08:08:15.583Z,16.53
2023-05-24T08:10:42.058Z,16.56
2023-05-24T08:13:08.539Z,15.94
2023-05-24T08:15:34.941Z,16.72
2023-05-24T08:18:01.495Z,16.43
2023-05-24T08:20:28.308Z,16.48
2023-05-24T08:22:55.002Z,16.89
2023-05-24T08:25:21.439Z,16.89
2023-05-24T08:27:47.924Z,15.98
2023-05-24T08:30:14.492Z,16.60
2023-05-24T08:32:41.021Z,16.56
2023-05-24T08:35:20.210Z,16.27
2023-05-24T08:37:48.897Z,16.51
2023-05-24T08:40:15.519Z,16.43
2023-05-24T08:42:42.443Z,16.46
2023-05-24T08:45:11.742Z,16.74
2023-05-24T08:47:39.335Z,16.82
2023-05-24T08:50:07.167Z,16.09
2023-05-24T08:52:34.941Z,16.98
2023-05-24T08:55:03.954Z,16.82
2023-05-24T08:57:32.479Z,17.24
2023-05-24T08:59:59.206Z,17.51
2023-05-24T09:02:27.055Z,17.57
2023-05-24T09:04:54.381Z,17.80
2023-05-24T09:07:24.211Z,17.83
2023-05-24T09:10:00.961Z,16.97
2023-05-24T09:12:37.487Z,17.90
2023-05-24T09:15:07.436Z,17.84
2023-05-24T09:17:38.542Z,17.86
2023-05-24T09:20:11.204Z,17.91
2023-05-24T09:22:42.082Z,18.01
2023-05-24T09:25:10.820Z,17.97
2023-05-24T09:27:38.390Z,17.86
2023-05-24T09:30:09.054Z,18.00
2023-05-24T09:32:35.533Z,17.74
2023-05-24T09:35:02.173Z,17.14
2023-05-24T09:37:32.664Z,18.24
2023-05-24T09:39:59.889Z,18.40
2023-05-24T09:42:28.433Z,18.46
2023-05-24T09:45:06.722Z,18.16
2023-05-24T09:47:34.893Z,18.45
2023-05-24T09:50:02.853Z,18.20
2023-05-24T09:52:29.214Z,18.52
2023-05-24T09:54:55.680Z,18.37
2023-05-24T09:57:22.989Z,17.48
2023-05-24T09:59:50.256Z,17.84
2023-05-24T10:02:20.293Z,17.84
2023-05-24T10:04:47.729Z,17.79
2023-05-24T10:07:15.464Z,17.44
2023-05-24T10:09:42.465Z,17.32
2023-05-24T10:12:09.103Z,17.65
2023-05-24T10:14:38.224Z,17.51
2023-05-24T10:17:07.938Z,17.98
2023-05-24T10:19:36.266Z,18.08
2023-05-24T10:22:09.955Z,18.00
2023-05-24T10:24:41.171Z,18.12
2023-05-24T10:27:13.589Z,18.26
2023-05-24T10:29:52.257Z,18.49
2023-05-24T10:32:20.555Z,18.42
2023-05-24T10:34:48.185Z,18.27
2023-05-24T10:37:17.014Z,18.14
2023-05-24T10:39:43.900Z,17.84
2023-05-24T10:42:10.550Z,17.89
2023-05-24T10:44:37.275Z,18.16
2023-05-24T10:47:17.975Z,18.07
2023-05-24T10:49:52.966Z,18.17
2023-05-24T10:52:20.564Z,18.38
2023-05-24T10:55:07.313Z,18.56
2023-05-24T10:57:34.463Z,18.57
2023-05-24T11:00:35.251Z,18.45
2023-05-24T11:03:06.822Z,18.45
2023-05-24T11:05:55.456Z,18.40
2023-05-24T11:08:33.530Z,18.47
2023-05-24T11:11:15.406Z,18.79
2023-05-24T11:13:48.030Z,18.88
2023-05-24T11:16:38.129Z,19.21
2023-05-24T11:19:31.118Z,19.34
2023-05-24T11:22:00.694Z,19.23
2023-05-24T11:24:28.962Z,19.23
2023-05-24T11:26:57.149Z,19.18
2023-05-24T11:29:24.348Z,19.37
2023-05-24T11:31:57.682Z,20.01
2023-05-24T11:34:27.204Z,20.30
2023-05-24T11:36:55.379Z,20.60
2023-05-24T11:39:23.535Z,20.92
2023-05-24T11:41:50.327Z,21.15
2023-05-24T11:44:21.495Z,21.45
2023-05-24T11:46:48.301Z,21.91
2023-05-24T11:49:17.831Z,21.88
2023-05-24T11:51:44.446Z,21.33
2023-05-24T11:54:11.770Z,20.96
2023-05-24T11:56:38.523Z,20.69
2023-05-24T11:59:16.450Z,20.40
2023-05-24T12:01:44.168Z,20.72
2023-05-24T12:04:11.931Z,21.07
2023-05-24T12:06:43.744Z,21.13
2023-05-24T12:09:13.575Z,21.58
2023-05-24T12:11:42.112Z,21.38
2023-05-24T12:14:16.827Z,20.99
2023-05-24T12:16:44.392Z,21.22
2023-05-24T12:19:37.289Z,21.33
2023-05-24T12:22:07.051Z,20.91
2023-05-24T12:24:34.335Z,20.96
2023-05-24T12:27:03.484Z,20.86
2023-05-24T12:29:39.733Z,20.65
2023-05-24T12:32:12.334Z,20.61
2023-05-24T12:34:43.726Z,20.57
2023-05-24T12:37:12.781Z,20.31
2023-05-24T12:39:42.285Z,20.42
2023-05-24T12:42:12.200Z,20.06
2023-05-24T12:44:39.132Z,19.92
2023-05-24T12:47:08.353Z,19.80
2023-05-24T12:49:35.286Z,19.64
2023-05-24T12:52:02.117Z,19.34
2023-05-24T12:54:29.993Z,19.35
2023-05-24T12:56:59.919Z,19.37
2023-05-24T12:59:28.476Z,19.52
2023-05-24T13:01:55.417Z,19.50
2023-05-24T13:04:24.484Z,19.70
2023-05-24T13:06:51.139Z,19.69
2023-05-24T13:09:22.093Z,19.46
2023-05-24T13:11:49.403Z,19.47
2023-05-24T13:14:16.873Z,19.49
2023-05-24T13:16:44.403Z,20.03
2023-05-24T13:19:11.901Z,19.98
2023-05-24T13:21:39.135Z,19.93
2023-05-24T13:24:06.912Z,19.86
2023-05-24T13:26:38.094Z,19.81
2023-05-24T13:31:37.412Z,20.15
2023-05-24T13:34:04.588Z,19.99
2023-05-24T13:36:31.067Z,20.26
2023-05-24T13:39:13.463Z,20.45
2023-05-24T13:41:42.511Z,20.54
2023-05-24T13:44:10.322Z,20.57
2023-05-24T13:46:37.445Z,20.01
2023-05-24T13:49:05.229Z,20.79
2023-05-24T13:51:31.924Z,21.05
2023-05-24T13:53:58.948Z,21.29
2023-05-24T13:56:25.917Z,21.66
2023-05-24T13:58:53.626Z,21.74
2023-05-24T14:01:20.843Z,21.73
2023-05-24T14:03:47.569Z,21.38
2023-05-24T14:06:14.319Z,21.27
2023-05-24T14:08:40.962Z,21.58
2023-05-24T14:11:07.584Z,21.67
2023-05-24T14:16:03.771Z,21.45
2023-05-24T14:18:30.483Z,21.30
2023-05-24T14:20:57.081Z,21.10
2023-05-24T14:23:23.602Z,20.59
2023-05-24T14:25:51.945Z,20.72
2023-05-24T14:28:19.218Z,20.36
2023-05-24T14:30:46.077Z,20.65
2023-05-24T14:33:13.539Z,20.57
2023-05-24T14:35:40.623Z,20.58
2023-05-24T14:38:11.502Z,20.23
2023-05-24T14:40:39.993Z,20.36
2023-05-24T14:43:10.342Z,20.60
2023-05-24T14:45:41.420Z,20.59
2023-05-24T14:48:11.503Z,20.47
2023-05-24T14:50:39.785Z,20.81
2023-05-24T14:53:12.368Z,20.30
2023-05-24T14:55:41.737Z,20.06
2023-05-24T14:58:09.453Z,20.74
2023-05-24T15:00:36.855Z,20.95
2023-05-24T15:03:06.110Z,21.31
2023-05-24T15:05:33.878Z,21.69
2023-05-24T15:08:00.664Z,22.07
2023-05-24T15:10:27.088Z,22.18
2023-05-24T15:12:53.490Z,22.35
2023-05-24T15:15:22.615Z,22.69
2023-05-24T15:17:49.515Z,22.62
2023-05-24T15:20:16.481Z,22.63
2023-05-24T15:22:43.106Z,22.25
2023-05-24T15:25:11.152Z,22.40
2023-05-24T15:27:37.809Z,22.48
2023-05-24T15:30:04.956Z,22.56
2023-05-24T15:32:31.583Z,22.26
2023-05-24T15:35:00.362Z,22.20
2023-05-24T15:37:27.400Z,22.02
2023-05-24T15:39:54.086Z,21.62
2023-05-24T15:42:21.587Z,21.48
2023-05-24T15:44:48.082Z,21.52
2023-05-24T15:47:14.584Z,21.04
2023-05-24T15:49:41.338Z,20.80
2023-05-24T15:52:08.559Z,21.13
2023-05-24T15:54:35.376Z,21.24
2023-05-24T15:57:03.051Z,20.90
2023-05-24T15:59:29.652Z,21.44
2023-05-24T16:01:57.072Z,21.38
2023-05-24T16:04:23.752Z,21.35
2023-05-24T16:06:50.570Z,21.44
2023-05-24T16:09:17.216Z,21.17
2023-05-24T16:11:43.911Z,21.56
2023-05-24T16:14:10.672Z,21.23
2023-05-24T16:16:38.125Z,20.92
2023-05-24T16:19:04.958Z,20.96
2023-05-24T16:21:32.939Z,20.72
2023-05-24T16:24:01.955Z,20.67
2023-05-24T16:26:32.452Z,20.54
2023-05-24T16:28:59.741Z,20.50
2023-05-24T16:31:26.524Z,20.60
2023-05-24T16:33:53.328Z,20.52
2023-05-24T16:36:21.197Z,20.20
2023-05-24T16:38:47.945Z,20.61
2023-05-24T16:41:14.724Z,20.07
2023-05-24T16:43:41.326Z,20.52
2023-05-24T16:46:08.296Z,20.59
2023-05-24T16:48:35.313Z,20.70
2023-05-24T16:51:02.014Z,20.95
2023-05-24T16:53:28.628Z,21.03
2023-05-24T16:55:56.929Z,21.14
2023-05-24T16:58:24.919Z,21.59
2023-05-24T17:00:54.019Z,21.42
2023-05-24T17:05:55.277Z,21.38
2023-05-24T17:08:21.812Z,21.21
2023-05-24T17:10:55.626Z,19.91
2023-05-24T17:13:23.080Z,20.94
2023-05-24T17:15:53.512Z,20.85
2023-05-24T17:18:27.565Z,20.61
2023-05-24T17:20:58.868Z,20.77
2023-05-24T17:23:31.100Z,20.98
2023-05-24T17:25:58.030Z,21.21
2023-05-24T17:28:28.980Z,20.62
2023-05-24T17:31:00.381Z,21.37
2023-05-24T17:33:28.567Z,21.38
2023-05-24T17:35:56.678Z,20.90
2023-05-24T17:38:24.831Z,21.20
2023-05-24T17:40:59.308Z,20.57
2023-05-24T17:43:31.568Z,21.26
2023-05-24T17:46:07.683Z,21.06
2023-05-24T17:48:38.405Z,20.55
2023-05-24T17:51:07.020Z,20.62
2023-05-24T17:53:35.128Z,20.79
2023-05-24T17:56:02.875Z,20.52
2023-05-24T17:58:36.056Z,20.53
2023-05-24T18:01:07.606Z,20.21
2023-05-24T18:03:36.973Z,20.41
2023-05-24T18:06:04.858Z,20.56
2023-05-24T18:08:31.874Z,20.75
2023-05-24T18:10:58.627Z,20.75
2023-05-24T18:13:25.804Z,20.37
2023-05-24T18:15:52.443Z,20.93
2023-05-24T18:18:19.075Z,20.97
2023-05-24T18:20:45.646Z,20.95
2023-05-24T18:23:12.197Z,20.93
2023-05-24T18:25:38.717Z,20.85
2023-05-24T18:28:05.279Z,20.58
2023-05-24T18:30:31.729Z,20.72
2023-05-24T18:33:07.047Z,20.77
2023-05-24T18:35:34.480Z,19.77
2023-05-24T18:38:00.888Z,20.55
2023-05-24T18:40:27.568Z,20.42
2023-05-24T18:42:53.983Z,20.39
2023-05-24T18:45:20.535Z,19.68
2023-05-24T18:47:46.981Z,20.42
2023-05-24T18:50:13.510Z,20.30
2023-05-24T18:52:54.537Z,20.27
2023-05-24T18:55:20.921Z,20.15
2023-05-24T18:57:47.860Z,19.91
2023-05-24T19:00:14.597Z,20.25
2023-05-24T19:02:41.114Z,19.65
2023-05-24T19:05:08.306Z,20.03
2023-05-24T19:07:35.694Z,20.44
2023-05-24T19:10:02.447Z,19.53
2023-05-24T19:12:28.937Z,19.52
2023-05-24T19:14:55.720Z,19.97
2023-05-24T19:17:24.017Z,20.14
2023-05-24T19:19:50.816Z,20.04
2023-05-24T19:22:17.494Z,19.65
2023-05-24T19:24:44.119Z,19.82
2023-05-24T19:27:10.744Z,19.55
2023-05-24T19:29:39.701Z,19.63
2023-05-24T19:32:11.745Z,19.58
2023-05-24T19:34:42.218Z,19.61
2023-05-24T19:37:09.612Z,19.30
2023-05-24T19:39:37.002Z,19.45
2023-05-24T19:42:04.078Z,18.84
2023-05-24T19:44:31.014Z,19.02
2023-05-24T19:46:57.582Z,19.51
2023-05-24T19:49:24.148Z,19.50
2023-05-24T19:51:52.176Z,19.24
2023-05-24T19:54:18.764Z,19.40
2023-05-24T19:56:49.710Z,19.33
2023-05-24T19:59:17.392Z,19.43
2023-05-24T20:01:44.400Z,19.20
2023-05-24T20:04:12.228Z,19.28
2023-05-24T20:06:39.102Z,19.22
2023-05-24T20:09:05.594Z,18.97
2023-05-24T20:11:32.020Z,18.84
2023-05-24T20:13:58.938Z,18.33
2023-05-24T20:16:25.736Z,18.15
2023-05-24T20:18:53.276Z,18.82
2023-05-24T20:21:19.916Z,18.12
2023-05-24T20:23:46.381Z,18.62
2023-05-24T20:26:12.885Z,18.76
2023-05-24T20:28:39.355Z,18.12
2023-05-24T20:31:06.374Z,18.13
2023-05-24T20:33:37.823Z,18.00
2023-05-24T20:36:05.215Z,18.04
2023-05-24T20:38:31.806Z,18.19
2023-05-24T20:40:58.341Z,18.06
2023-05-24T20:43:24.724Z,18.55
2023-05-24T20:45:51.133Z,18.31
2023-05-24T20:48:17.632Z,18.20
2023-05-24T20:50:44.080Z,18.03
2023-05-24T20:53:10.502Z,18.34
2023-05-24T20:55:36.984Z,18.24
2023-05-24T20:58:03.540Z,18.30
2023-05-24T21:00:30.010Z,18.41
2023-05-24T21:02:56.588Z,17.92
2023-05-24T21:05:23.127Z,18.07
2023-05-24T21:07:49.714Z,17.70
2023-05-24T21:10:19.707Z,18.23
2023-05-24T21:12:46.402Z,18.25
2023-05-24T21:15:12.771Z,18.05
2023-05-24T21:17:39.320Z,18.09
2023-05-24T21:20:06.497Z,18.15
2023-05-24T21:22:32.953Z,18.13
2023-05-24T21:24:59.296Z,18.12
2023-05-24T21:27:27.277Z,18.04
2023-05-24T21:29:53.621Z,18.18
2023-05-24T21:32:20.001Z,18.00
2023-05-24T21:34:46.381Z,17.22
2023-05-24T21:37:12.772Z,17.79
2023-05-24T21:39:40.225Z,17.84
2023-05-24T21:42:06.742Z,18.03
2023-05-24T21:44:33.158Z,17.39
2023-05-24T21:46:59.649Z,17.61
2023-05-24T21:49:27.420Z,18.07
2023-05-24T21:51:53.922Z,18.15
2023-05-24T21:54:20.606Z,18.01
2023-05-24T21:56:47.250Z,18.11
2023-05-24T21:59:13.740Z,17.93
2023-05-24T22:01:40.524Z,18.13
2023-05-24T22:04:07.028Z,17.69
2023-05-24T22:06:33.453Z,17.67
2023-05-24T22:09:01.821Z,17.08
2023-05-24T22:11:29.323Z,17.40
2023-05-24T22:13:56.210Z,16.34
2023-05-24T22:16:23.908Z,17.11
2023-05-24T22:18:55.424Z,17.12
2023-05-24T22:21:22.676Z,17.14
2023-05-24T22:23:51.362Z,16.52
2023-05-24T22:26:17.757Z,17.16
2023-05-24T22:28:55.478Z,16.87
2023-05-24T22:31:23.854Z,17.05
2023-05-24T22:33:50.806Z,17.08
2023-05-24T22:36:17.215Z,16.42
2023-05-24T22:38:45.250Z,17.02
2023-05-24T22:41:11.864Z,16.88
2023-05-24T22:43:38.348Z,17.01
2023-05-24T22:46:06.185Z,16.91
2023-05-24T22:48:34.462Z,16.76
2023-05-24T22:51:01.187Z,16.93
2023-05-24T22:53:28.408Z,16.78
2023-05-24T22:55:54.810Z,16.72
2023-05-24T22:58:22.941Z,16.61
2023-05-24T23:00:49.943Z,16.60
2023-05-24T23:03:16.317Z,16.58
2023-05-24T23:05:42.977Z,16.49
2023-05-24T23:08:12.987Z,16.51
2023-05-24T23:10:46.856Z,16.66
2023-05-24T23:13:14.752Z,16.43
2023-05-24T23:15:41.260Z,16.24
2023-05-24T23:18:09.592Z,16.64
2023-05-24T23:20:40.138Z,16.29
2023-05-24T23:23:09.460Z,16.53
2023-05-24T23:25:35.920Z,16.64
2023-05-24T23:28:02.351Z,16.55
2023-05-24T23:30:29.098Z,16.52
2023-05-24T23:32:55.678Z,16.22
2023-05-24T23:35:22.279Z,16.32
2023-05-24T23:37:48.777Z,16.17
2023-05-24T23:40:15.394Z,16.23
2023-05-24T23:42:41.827Z,16.16
2023-05-24T23:45:08.451Z,16.24
2023-05-24T23:47:34.948Z,16.00
2023-05-24T23:50:01.371Z,15.98
2023-05-24T23:52:28.216Z,15.98
2023-05-24T23:54:54.691Z,15.47
2023-05-24T23:57:21.141Z,15.88
2023-05-24T23:59:47.533Z,15.91
